sensor_id;sensor_type;location;lat;lon;timestamp;P1;durP1;ratioP1;P2;durP2;ratioP2
48845;SDS011;34665;51.886;5.436;2022-10-15T00:00:29;64.90;;;32.60;;
48845;SDS011;34665;51.886;5.436;2022-10-15T00:02:54;65.65;;;32.22;;
48845;SDS011;34665;51.886;5.436;2022-10-15T00:05:20;71.67;;;33.80;;
48845;SDS011;34665;51.886;5.436;2022-10-15T00:07:46;73.15;;;32.97;;
48845;SDS011;34665;51.886;5.436;2022-10-15T00:10:13;68.32;;;31.23;;
48845;SDS011;34665;51.886;5.436;2022-10-15T00:12:39;70.20;;;33.40;;
48845;SDS011;34665;51.886;5.436;2022-10-15T00:15:05;70.47;;;34.57;;
48845;SDS011;34665;51.886;5.436;2022-10-15T00:17:34;69.20;;;33.03;;
48845;SDS011;34665;51.886;5.436;2022-10-15T00:20:01;74.00;;;34.57;;
48845;SDS011;34665;51.886;5.436;2022-10-15T00:22:29;71.30;;;33.07;;
48845;SDS011;34665;51.886;5.436;2022-10-15T00:24:54;71.40;;;33.57;;
48845;SDS011;34665;51.886;5.436;2022-10-15T00:27:20;66.78;;;33.38;;
48845;SDS011;34665;51.886;5.436;2022-10-15T00:29:45;74.40;;;33.85;;
48845;SDS011;34665;51.886;5.436;2022-10-15T00:32:11;74.50;;;35.20;;
48845;SDS011;34665;51.886;5.436;2022-10-15T00:34:37;73.40;;;34.20;;
48845;SDS011;34665;51.886;5.436;2022-10-15T00:39:29;71.97;;;33.00;;
48845;SDS011;34665;51.886;5.436;2022-10-15T00:41:55;81.93;;;37.30;;
48845;SDS011;34665;51.886;5.436;2022-10-15T00:47:02;74.63;;;36.73;;
48845;SDS011;34665;51.886;5.436;2022-10-15T00:49:37;76.80;;;36.67;;
48845;SDS011;34665;51.886;5.436;2022-10-15T00:52:08;78.20;;;38.57;;
48845;SDS011;34665;51.886;5.436;2022-10-15T00:54:37;78.57;;;37.33;;
48845;SDS011;34665;51.886;5.436;2022-10-15T00:57:06;83.77;;;39.53;;
48845;SDS011;34665;51.886;5.436;2022-10-15T00:59:35;85.43;;;38.67;;
48845;SDS011;34665;51.886;5.436;2022-10-15T01:02:06;85.90;;;38.00;;
48845;SDS011;34665;51.886;5.436;2022-10-15T01:04:34;83.03;;;37.57;;
48845;SDS011;34665;51.886;5.436;2022-10-15T01:07:00;100.28;;;41.22;;
48845;SDS011;34665;51.886;5.436;2022-10-15T01:09:26;102.57;;;40.38;;
48845;SDS011;34665;51.886;5.436;2022-10-15T01:11:52;102.50;;;42.05;;
48845;SDS011;34665;51.886;5.436;2022-10-15T01:14:27;106.33;;;41.33;;
48845;SDS011;34665;51.886;5.436;2022-10-15T01:17:06;105.33;;;43.77;;
48845;SDS011;34665;51.886;5.436;2022-10-15T01:22:55;106.23;;;42.87;;
48845;SDS011;34665;51.886;5.436;2022-10-15T01:25:54;96.23;;;41.17;;
48845;SDS011;34665;51.886;5.436;2022-10-15T01:28:41;106.93;;;42.83;;
48845;SDS011;34665;51.886;5.436;2022-10-15T01:34:16;97.07;;;39.93;;
48845;SDS011;34665;51.886;5.436;2022-10-15T01:37:07;93.03;;;42.40;;
48845;SDS011;34665;51.886;5.436;2022-10-15T01:39:40;98.43;;;40.93;;
48845;SDS011;34665;51.886;5.436;2022-10-15T01:44:47;99.33;;;40.40;;
48845;SDS011;34665;51.886;5.436;2022-10-15T01:47:52;110.23;;;45.23;;
48845;SDS011;34665;51.886;5.436;2022-10-15T01:50:22;118.67;;;47.03;;
48845;SDS011;34665;51.886;5.436;2022-10-15T01:52:52;104.87;;;44.63;;
48845;SDS011;34665;51.886;5.436;2022-10-15T01:55:20;113.07;;;45.20;;
48845;SDS011;34665;51.886;5.436;2022-10-15T01:57:48;109.20;;;44.20;;
48845;SDS011;34665;51.886;5.436;2022-10-15T02:00:14;104.87;;;44.93;;
48845;SDS011;34665;51.886;5.436;2022-10-15T02:02:41;95.28;;;41.45;;
48845;SDS011;34665;51.886;5.436;2022-10-15T02:05:18;111.07;;;46.83;;
48845;SDS011;34665;51.886;5.436;2022-10-15T02:11:15;102.03;;;43.33;;
48845;SDS011;34665;51.886;5.436;2022-10-15T02:21:38;110.20;;;45.40;;
48845;SDS011;34665;51.886;5.436;2022-10-15T02:24:20;109.57;;;46.73;;
48845;SDS011;34665;51.886;5.436;2022-10-15T02:26:50;95.77;;;43.50;;
48845;SDS011;34665;51.886;5.436;2022-10-15T02:29:19;100.03;;;44.27;;
48845;SDS011;34665;51.886;5.436;2022-10-15T02:31:47;99.10;;;42.33;;
48845;SDS011;34665;51.886;5.436;2022-10-15T02:34:16;102.03;;;43.73;;
48845;SDS011;34665;51.886;5.436;2022-10-15T02:36:44;88.73;;;41.00;;
48845;SDS011;34665;51.886;5.436;2022-10-15T02:39:12;90.50;;;42.67;;
48845;SDS011;34665;51.886;5.436;2022-10-15T02:41:42;85.50;;;42.33;;
48845;SDS011;34665;51.886;5.436;2022-10-15T02:44:11;83.77;;;39.97;;
48845;SDS011;34665;51.886;5.436;2022-10-15T02:46:37;93.18;;;41.35;;
48845;SDS011;34665;51.886;5.436;2022-10-15T02:49:03;90.15;;;41.63;;
48845;SDS011;34665;51.886;5.436;2022-10-15T02:51:32;92.13;;;41.80;;
48845;SDS011;34665;51.886;5.436;2022-10-15T02:53:59;95.10;;;42.60;;
48845;SDS011;34665;51.886;5.436;2022-10-15T02:56:25;84.90;;;41.47;;
48845;SDS011;34665;51.886;5.436;2022-10-15T02:58:51;82.43;;;40.25;;
48845;SDS011;34665;51.886;5.436;2022-10-15T03:01:18;99.47;;;40.57;;
48845;SDS011;34665;51.886;5.436;2022-10-15T03:03:43;90.32;;;40.50;;
48845;SDS011;34665;51.886;5.436;2022-10-15T03:06:09;80.70;;;38.70;;
48845;SDS011;34665;51.886;5.436;2022-10-15T03:08:35;75.07;;;36.72;;
48845;SDS011;34665;51.886;5.436;2022-10-15T03:11:01;80.47;;;39.07;;
48845;SDS011;34665;51.886;5.436;2022-10-15T03:13:28;82.57;;;39.78;;
48845;SDS011;34665;51.886;5.436;2022-10-15T03:15:54;81.43;;;38.90;;
48845;SDS011;34665;51.886;5.436;2022-10-15T03:18:21;77.30;;;36.90;;
48845;SDS011;34665;51.886;5.436;2022-10-15T03:20:54;85.03;;;39.47;;
48845;SDS011;34665;51.886;5.436;2022-10-15T03:23:20;79.40;;;38.87;;
48845;SDS011;34665;51.886;5.436;2022-10-15T03:25:49;83.07;;;38.43;;
48845;SDS011;34665;51.886;5.436;2022-10-15T03:28:20;82.63;;;38.97;;
48845;SDS011;34665;51.886;5.436;2022-10-15T03:30:47;75.83;;;38.50;;
48845;SDS011;34665;51.886;5.436;2022-10-15T03:33:13;81.40;;;40.33;;
48845;SDS011;34665;51.886;5.436;2022-10-15T03:35:39;87.07;;;40.28;;
48845;SDS011;34665;51.886;5.436;2022-10-15T03:38:06;84.67;;;40.60;;
48845;SDS011;34665;51.886;5.436;2022-10-15T03:40:33;84.60;;;39.60;;
48845;SDS011;34665;51.886;5.436;2022-10-15T03:43:13;87.37;;;41.37;;
48845;SDS011;34665;51.886;5.436;2022-10-15T03:45:39;88.03;;;42.13;;
48845;SDS011;34665;51.886;5.436;2022-10-15T03:48:18;94.23;;;43.43;;
48845;SDS011;34665;51.886;5.436;2022-10-15T03:50:45;99.78;;;43.67;;
48845;SDS011;34665;51.886;5.436;2022-10-15T03:53:11;87.83;;;43.73;;
48845;SDS011;34665;51.886;5.436;2022-10-15T03:55:38;89.15;;;42.10;;
48845;SDS011;34665;51.886;5.436;2022-10-15T03:58:03;90.35;;;44.10;;
48845;SDS011;34665;51.886;5.436;2022-10-15T04:00:29;92.03;;;43.60;;
48845;SDS011;34665;51.886;5.436;2022-10-15T04:02:59;94.33;;;44.13;;
48845;SDS011;34665;51.886;5.436;2022-10-15T04:05:26;99.17;;;46.33;;
48845;SDS011;34665;51.886;5.436;2022-10-15T04:08:01;94.97;;;43.93;;
48845;SDS011;34665;51.886;5.436;2022-10-15T04:10:29;98.63;;;46.80;;
48845;SDS011;34665;51.886;5.436;2022-10-15T04:12:55;97.47;;;47.03;;
48845;SDS011;34665;51.886;5.436;2022-10-15T04:15:20;99.73;;;43.90;;
48845;SDS011;34665;51.886;5.436;2022-10-15T04:17:55;97.90;;;46.03;;
48845;SDS011;34665;51.886;5.436;2022-10-15T04:20:22;90.87;;;43.93;;
48845;SDS011;34665;51.886;5.436;2022-10-15T04:22:48;103.40;;;46.53;;
48845;SDS011;34665;51.886;5.436;2022-10-15T04:25:14;102.60;;;47.33;;
48845;SDS011;34665;51.886;5.436;2022-10-15T04:30:09;93.73;;;44.70;;
48845;SDS011;34665;51.886;5.436;2022-10-15T04:32:40;103.07;;;46.63;;
48845;SDS011;34665;51.886;5.436;2022-10-15T04:35:06;101.35;;;47.90;;
48845;SDS011;34665;51.886;5.436;2022-10-15T04:40:56;96.97;;;48.67;;
48845;SDS011;34665;51.886;5.436;2022-10-15T04:43:24;105.77;;;47.37;;
48845;SDS011;34665;51.886;5.436;2022-10-15T04:46:00;107.10;;;49.13;;
48845;SDS011;34665;51.886;5.436;2022-10-15T04:48:28;102.23;;;48.20;;
48845;SDS011;34665;51.886;5.436;2022-10-15T04:51:01;106.40;;;50.00;;
48845;SDS011;34665;51.886;5.436;2022-10-15T04:53:39;114.70;;;52.33;;
48845;SDS011;34665;51.886;5.436;2022-10-15T04:56:06;116.90;;;55.30;;
48845;SDS011;34665;51.886;5.436;2022-10-15T04:58:35;123.83;;;56.43;;
48845;SDS011;34665;51.886;5.436;2022-10-15T05:01:02;144.43;;;63.17;;
48845;SDS011;34665;51.886;5.436;2022-10-15T05:03:38;130.07;;;60.35;;
48845;SDS011;34665;51.886;5.436;2022-10-15T05:06:07;136.20;;;58.03;;
48845;SDS011;34665;51.886;5.436;2022-10-15T05:08:37;134.43;;;60.13;;
48845;SDS011;34665;51.886;5.436;2022-10-15T05:11:16;132.93;;;57.97;;
48845;SDS011;34665;51.886;5.436;2022-10-15T05:13:47;135.13;;;58.60;;
48845;SDS011;34665;51.886;5.436;2022-10-15T05:16:15;135.70;;;58.20;;
48845;SDS011;34665;51.886;5.436;2022-10-15T05:18:46;126.80;;;53.60;;
48845;SDS011;34665;51.886;5.436;2022-10-15T05:21:17;131.23;;;54.27;;
48845;SDS011;34665;51.886;5.436;2022-10-15T05:23:45;129.63;;;51.90;;
48845;SDS011;34665;51.886;5.436;2022-10-15T05:26:21;130.13;;;52.57;;
48845;SDS011;34665;51.886;5.436;2022-10-15T05:28:49;118.97;;;50.87;;
48845;SDS011;34665;51.886;5.436;2022-10-15T05:31:25;124.30;;;47.97;;
48845;SDS011;34665;51.886;5.436;2022-10-15T05:34:04;123.50;;;48.27;;
48845;SDS011;34665;51.886;5.436;2022-10-15T05:36:34;117.87;;;45.53;;
48845;SDS011;34665;51.886;5.436;2022-10-15T05:39:04;113.47;;;42.87;;
48845;SDS011;34665;51.886;5.436;2022-10-15T05:41:38;114.17;;;41.77;;
48845;SDS011;34665;51.886;5.436;2022-10-15T05:44:04;120.85;;;45.47;;
48845;SDS011;34665;51.886;5.436;2022-10-15T05:46:30;108.18;;;42.13;;
48845;SDS011;34665;51.886;5.436;2022-10-15T05:48:56;99.00;;;38.40;;
48845;SDS011;34665;51.886;5.436;2022-10-15T05:51:23;107.93;;;41.17;;
48845;SDS011;34665;51.886;5.436;2022-10-15T05:53:54;115.47;;;39.90;;
48845;SDS011;34665;51.886;5.436;2022-10-15T05:56:22;104.87;;;38.77;;
48845;SDS011;34665;51.886;5.436;2022-10-15T05:58:48;106.85;;;41.20;;
48845;SDS011;34665;51.886;5.436;2022-10-15T06:01:14;112.97;;;41.78;;
48845;SDS011;34665;51.886;5.436;2022-10-15T06:03:40;134.57;;;48.40;;
48845;SDS011;34665;51.886;5.436;2022-10-15T06:06:16;122.72;;;47.17;;
48845;SDS011;34665;51.886;5.436;2022-10-15T06:08:47;136.20;;;47.43;;
48845;SDS011;34665;51.886;5.436;2022-10-15T06:13:40;93.73;;;35.30;;
48845;SDS011;34665;51.886;5.436;2022-10-15T06:16:08;97.73;;;35.40;;
48845;SDS011;34665;51.886;5.436;2022-10-15T06:18:34;89.00;;;34.47;;
48845;SDS011;34665;51.886;5.436;2022-10-15T06:21:02;87.83;;;35.10;;
48845;SDS011;34665;51.886;5.436;2022-10-15T06:23:27;86.37;;;33.00;;
48845;SDS011;34665;51.886;5.436;2022-10-15T06:25:53;83.45;;;33.38;;
48845;SDS011;34665;51.886;5.436;2022-10-15T06:28:19;63.65;;;29.30;;
48845;SDS011;34665;51.886;5.436;2022-10-15T06:30:44;60.08;;;26.02;;
48845;SDS011;34665;51.886;5.436;2022-10-15T06:33:10;66.90;;;28.63;;
48845;SDS011;34665;51.886;5.436;2022-10-15T06:35:35;62.00;;;26.98;;
48845;SDS011;34665;51.886;5.436;2022-10-15T06:38:01;64.57;;;30.27;;
48845;SDS011;34665;51.886;5.436;2022-10-15T06:40:27;60.13;;;26.80;;
48845;SDS011;34665;51.886;5.436;2022-10-15T06:42:53;63.85;;;27.50;;
48845;SDS011;34665;51.886;5.436;2022-10-15T06:45:19;60.40;;;26.35;;
48845;SDS011;34665;51.886;5.436;2022-10-15T06:47:44;61.15;;;26.63;;
48845;SDS011;34665;51.886;5.436;2022-10-15T06:50:10;57.47;;;26.20;;
48845;SDS011;34665;51.886;5.436;2022-10-15T06:55:03;50.77;;;22.90;;
48845;SDS011;34665;51.886;5.436;2022-10-15T06:57:29;46.53;;;23.13;;
48845;SDS011;34665;51.886;5.436;2022-10-15T06:59:55;51.00;;;24.63;;
48845;SDS011;34665;51.886;5.436;2022-10-15T07:02:21;48.60;;;23.02;;
48845;SDS011;34665;51.886;5.436;2022-10-15T07:04:47;45.03;;;22.20;;
48845;SDS011;34665;51.886;5.436;2022-10-15T07:07:18;46.43;;;21.47;;
48845;SDS011;34665;51.886;5.436;2022-10-15T07:09:44;50.25;;;22.85;;
48845;SDS011;34665;51.886;5.436;2022-10-15T07:12:11;44.93;;;21.17;;
48845;SDS011;34665;51.886;5.436;2022-10-15T07:14:38;45.63;;;21.40;;
48845;SDS011;34665;51.886;5.436;2022-10-15T07:17:04;43.42;;;21.73;;
48845;SDS011;34665;51.886;5.436;2022-10-15T07:19:29;42.05;;;20.73;;
48845;SDS011;34665;51.886;5.436;2022-10-15T07:21:55;42.80;;;21.02;;
48845;SDS011;34665;51.886;5.436;2022-10-15T07:24:21;39.20;;;19.98;;
48845;SDS011;34665;51.886;5.436;2022-10-15T07:26:47;41.97;;;20.25;;
48845;SDS011;34665;51.886;5.436;2022-10-15T07:29:12;45.22;;;20.10;;
48845;SDS011;34665;51.886;5.436;2022-10-15T07:31:38;39.63;;;20.95;;
48845;SDS011;34665;51.886;5.436;2022-10-15T07:34:03;41.38;;;20.33;;
48845;SDS011;34665;51.886;5.436;2022-10-15T07:36:30;36.27;;;18.93;;
48845;SDS011;34665;51.886;5.436;2022-10-15T07:38:56;36.13;;;19.48;;
48845;SDS011;34665;51.886;5.436;2022-10-15T07:41:21;44.60;;;20.67;;
48845;SDS011;34665;51.886;5.436;2022-10-15T07:43:50;41.35;;;20.92;;
48845;SDS011;34665;51.886;5.436;2022-10-15T07:46:16;40.70;;;19.80;;
48845;SDS011;34665;51.886;5.436;2022-10-15T07:48:41;41.80;;;20.67;;
48845;SDS011;34665;51.886;5.436;2022-10-15T07:51:09;43.42;;;20.77;;
48845;SDS011;34665;51.886;5.436;2022-10-15T07:53:36;38.83;;;19.93;;
48845;SDS011;34665;51.886;5.436;2022-10-15T07:56:04;37.10;;;20.15;;
48845;SDS011;34665;51.886;5.436;2022-10-15T07:58:32;36.70;;;19.93;;
48845;SDS011;34665;51.886;5.436;2022-10-15T08:01:02;39.40;;;20.13;;
48845;SDS011;34665;51.886;5.436;2022-10-15T08:03:29;37.80;;;20.07;;
48845;SDS011;34665;51.886;5.436;2022-10-15T08:05:55;38.45;;;19.67;;
48845;SDS011;34665;51.886;5.436;2022-10-15T08:08:22;36.97;;;18.73;;
48845;SDS011;34665;51.886;5.436;2022-10-15T08:10:47;37.72;;;19.20;;
48845;SDS011;34665;51.886;5.436;2022-10-15T08:13:13;39.78;;;19.13;;
48845;SDS011;34665;51.886;5.436;2022-10-15T08:15:41;41.00;;;18.93;;
48845;SDS011;34665;51.886;5.436;2022-10-15T08:18:07;39.25;;;19.13;;
48845;SDS011;34665;51.886;5.436;2022-10-15T08:20:37;33.73;;;18.40;;
48845;SDS011;34665;51.886;5.436;2022-10-15T08:23:03;36.70;;;18.57;;
48845;SDS011;34665;51.886;5.436;2022-10-15T08:25:30;37.77;;;19.27;;
48845;SDS011;34665;51.886;5.436;2022-10-15T08:27:58;33.57;;;18.73;;
48845;SDS011;34665;51.886;5.436;2022-10-15T08:30:24;35.45;;;18.92;;
48845;SDS011;34665;51.886;5.436;2022-10-15T08:32:49;39.05;;;19.77;;
48845;SDS011;34665;51.886;5.436;2022-10-15T08:35:15;37.50;;;19.08;;
48845;SDS011;34665;51.886;5.436;2022-10-15T08:37:41;31.23;;;17.77;;
48845;SDS011;34665;51.886;5.436;2022-10-15T08:40:08;30.05;;;17.02;;
48845;SDS011;34665;51.886;5.436;2022-10-15T08:42:38;29.67;;;17.37;;
48845;SDS011;34665;51.886;5.436;2022-10-15T08:48:04;31.42;;;17.52;;
48845;SDS011;34665;51.886;5.436;2022-10-15T08:50:38;33.97;;;17.80;;
48845;SDS011;34665;51.886;5.436;2022-10-15T08:53:09;34.17;;;17.13;;
48845;SDS011;34665;51.886;5.436;2022-10-15T08:55:39;30.90;;;16.80;;
48845;SDS011;34665;51.886;5.436;2022-10-15T08:58:16;35.23;;;16.37;;
48845;SDS011;34665;51.886;5.436;2022-10-15T09:01:00;29.97;;;14.80;;
48845;SDS011;34665;51.886;5.436;2022-10-15T09:03:36;30.03;;;16.33;;
48845;SDS011;34665;51.886;5.436;2022-10-15T09:08:55;26.80;;;14.40;;
48845;SDS011;34665;51.886;5.436;2022-10-15T09:11:42;27.73;;;13.63;;
48845;SDS011;34665;51.886;5.436;2022-10-15T09:14:19;22.40;;;12.80;;
48845;SDS011;34665;51.886;5.436;2022-10-15T09:16:49;23.40;;;13.17;;
48845;SDS011;34665;51.886;5.436;2022-10-15T09:19:19;23.20;;;12.83;;
48845;SDS011;34665;51.886;5.436;2022-10-15T09:21:46;23.77;;;12.00;;
48845;SDS011;34665;51.886;5.436;2022-10-15T09:24:21;18.60;;;10.57;;
48845;SDS011;34665;51.886;5.436;2022-10-15T09:29:40;18.10;;;9.97;;
48845;SDS011;34665;51.886;5.436;2022-10-15T09:34:56;18.87;;;10.70;;
48845;SDS011;34665;51.886;5.436;2022-10-15T09:40:07;19.27;;;10.40;;
48845;SDS011;34665;51.886;5.436;2022-10-15T09:42:37;21.07;;;11.23;;
48845;SDS011;34665;51.886;5.436;2022-10-15T09:45:07;24.13;;;10.47;;
48845;SDS011;34665;51.886;5.436;2022-10-15T09:47:35;25.27;;;12.20;;
48845;SDS011;34665;51.886;5.436;2022-10-15T09:50:04;55.63;;;14.60;;
48845;SDS011;34665;51.886;5.436;2022-10-15T09:52:42;34.63;;;13.17;;
48845;SDS011;34665;51.886;5.436;2022-10-15T09:58:02;34.80;;;14.37;;
48845;SDS011;34665;51.886;5.436;2022-10-15T10:03:15;36.80;;;14.67;;
48845;SDS011;34665;51.886;5.436;2022-10-15T10:05:40;41.47;;;15.38;;
48845;SDS011;34665;51.886;5.436;2022-10-15T10:11:00;34.73;;;14.50;;
48845;SDS011;34665;51.886;5.436;2022-10-15T10:15:54;36.47;;;14.77;;
48845;SDS011;34665;51.886;5.436;2022-10-15T10:18:26;34.03;;;12.50;;
48845;SDS011;34665;51.886;5.436;2022-10-15T10:20:54;36.85;;;15.18;;
48845;SDS011;34665;51.886;5.436;2022-10-15T10:26:00;38.20;;;16.20;;
48845;SDS011;34665;51.886;5.436;2022-10-15T10:31:03;33.63;;;14.43;;
48845;SDS011;34665;51.886;5.436;2022-10-15T10:35:56;35.85;;;15.55;;
48845;SDS011;34665;51.886;5.436;2022-10-15T10:41:08;49.87;;;16.77;;
48845;SDS011;34665;51.886;5.436;2022-10-15T10:43:35;43.47;;;17.03;;
48845;SDS011;34665;51.886;5.436;2022-10-15T10:46:15;41.00;;;16.87;;
48845;SDS011;34665;51.886;5.436;2022-10-15T10:48:50;41.90;;;15.57;;
48845;SDS011;34665;51.886;5.436;2022-10-15T10:51:22;37.43;;;15.27;;
48845;SDS011;34665;51.886;5.436;2022-10-15T10:53:59;39.30;;;14.93;;
48845;SDS011;34665;51.886;5.436;2022-10-15T10:56:41;47.50;;;16.27;;
48845;SDS011;34665;51.886;5.436;2022-10-15T10:59:10;41.90;;;14.57;;
48845;SDS011;34665;51.886;5.436;2022-10-15T11:01:40;40.83;;;14.17;;
48845;SDS011;34665;51.886;5.436;2022-10-15T11:04:10;32.60;;;13.65;;
48845;SDS011;34665;51.886;5.436;2022-10-15T11:09:58;38.10;;;14.47;;
48845;SDS011;34665;51.886;5.436;2022-10-15T11:12:43;31.30;;;14.23;;
48845;SDS011;34665;51.886;5.436;2022-10-15T11:18:04;34.13;;;14.70;;
48845;SDS011;34665;51.886;5.436;2022-10-15T11:23:24;35.13;;;15.03;;
48845;SDS011;34665;51.886;5.436;2022-10-15T11:26:04;30.30;;;13.27;;
48845;SDS011;34665;51.886;5.436;2022-10-15T11:29:04;24.85;;;12.27;;
48845;SDS011;34665;51.886;5.436;2022-10-15T11:32:00;24.97;;;12.67;;
48845;SDS011;34665;51.886;5.436;2022-10-15T11:39:55;27.00;;;11.53;;
48845;SDS011;34665;51.886;5.436;2022-10-15T11:42:45;24.83;;;11.67;;
48845;SDS011;34665;51.886;5.436;2022-10-15T11:51:17;20.63;;;11.70;;
48845;SDS011;34665;51.886;5.436;2022-10-15T11:54:04;21.10;;;11.00;;
48845;SDS011;34665;51.886;5.436;2022-10-15T11:56:55;17.20;;;10.97;;
48845;SDS011;34665;51.886;5.436;2022-10-15T12:04:54;16.70;;;10.93;;
48845;SDS011;34665;51.886;5.436;2022-10-15T12:09:56;19.13;;;10.23;;
48845;SDS011;34665;51.886;5.436;2022-10-15T12:12:39;13.80;;;10.13;;
48845;SDS011;34665;51.886;5.436;2022-10-15T12:20:49;27.00;;;13.93;;
48845;SDS011;34665;51.886;5.436;2022-10-15T12:23:22;32.97;;;17.85;;
48845;SDS011;34665;51.886;5.436;2022-10-15T12:28:21;33.03;;;17.90;;
48845;SDS011;34665;51.886;5.436;2022-10-15T12:30:56;31.00;;;16.87;;
48845;SDS011;34665;51.886;5.436;2022-10-15T12:33:23;28.37;;;14.73;;
48845;SDS011;34665;51.886;5.436;2022-10-15T12:35:52;33.77;;;18.30;;
48845;SDS011;34665;51.886;5.436;2022-10-15T12:40:54;36.20;;;17.87;;
48845;SDS011;34665;51.886;5.436;2022-10-15T12:43:21;32.33;;;19.17;;
48845;SDS011;34665;51.886;5.436;2022-10-15T12:46:06;33.97;;;18.70;;
48845;SDS011;34665;51.886;5.436;2022-10-15T12:53:41;25.07;;;15.67;;
48845;SDS011;34665;51.886;5.436;2022-10-15T12:58:41;26.27;;;15.30;;
48845;SDS011;34665;51.886;5.436;2022-10-15T13:08:50;16.87;;;9.77;;
48845;SDS011;34665;51.886;5.436;2022-10-15T13:11:29;15.40;;;9.17;;
48845;SDS011;34665;51.886;5.436;2022-10-15T13:16:53;15.23;;;10.23;;
48845;SDS011;34665;51.886;5.436;2022-10-15T13:22:00;14.97;;;9.87;;
48845;SDS011;34665;51.886;5.436;2022-10-15T13:24:28;21.00;;;11.63;;
48845;SDS011;34665;51.886;5.436;2022-10-15T13:27:03;39.17;;;17.33;;
48845;SDS011;34665;51.886;5.436;2022-10-15T13:29:39;21.25;;;10.70;;
48845;SDS011;34665;51.886;5.436;2022-10-15T13:32:06;22.42;;;11.90;;
48845;SDS011;34665;51.886;5.436;2022-10-15T13:34:39;23.57;;;11.27;;
48845;SDS011;34665;51.886;5.436;2022-10-15T13:37:05;35.28;;;14.07;;
48845;SDS011;34665;51.886;5.436;2022-10-15T13:39:36;43.00;;;14.93;;
48845;SDS011;34665;51.886;5.436;2022-10-15T13:44:54;53.33;;;17.33;;
48845;SDS011;34665;51.886;5.436;2022-10-15T13:52:40;46.00;;;16.87;;
48845;SDS011;34665;51.886;5.436;2022-10-15T13:55:15;41.60;;;14.07;;
48845;SDS011;34665;51.886;5.436;2022-10-15T13:57:45;50.60;;;15.93;;
48845;SDS011;34665;51.886;5.436;2022-10-15T14:00:24;56.43;;;16.33;;
48845;SDS011;34665;51.886;5.436;2022-10-15T14:03:06;55.57;;;15.57;;
48845;SDS011;34665;51.886;5.436;2022-10-15T14:05:32;85.60;;;22.37;;
48845;SDS011;34665;51.886;5.436;2022-10-15T14:07:58;81.00;;;21.75;;
48845;SDS011;34665;51.886;5.436;2022-10-15T14:10:23;34.47;;;11.48;;
48845;SDS011;34665;51.886;5.436;2022-10-15T14:12:49;17.15;;;6.40;;
48845;SDS011;34665;51.886;5.436;2022-10-15T14:18:11;23.70;;;6.93;;
48845;SDS011;34665;51.886;5.436;2022-10-15T14:20:43;14.43;;;5.40;;
48845;SDS011;34665;51.886;5.436;2022-10-15T14:23:21;6.83;;;4.23;;
48845;SDS011;34665;51.886;5.436;2022-10-15T14:25:59;9.10;;;4.10;;
48845;SDS011;34665;51.886;5.436;2022-10-15T14:28:27;5.93;;;3.23;;
48845;SDS011;34665;51.886;5.436;2022-10-15T14:30:55;8.30;;;2.47;;
48845;SDS011;34665;51.886;5.436;2022-10-15T14:33:31;6.10;;;2.55;;
48845;SDS011;34665;51.886;5.436;2022-10-15T14:36:04;14.10;;;5.77;;
48845;SDS011;34665;51.886;5.436;2022-10-15T14:38:37;11.60;;;4.40;;
48845;SDS011;34665;51.886;5.436;2022-10-15T14:41:05;6.35;;;2.63;;
48845;SDS011;34665;51.886;5.436;2022-10-15T14:43:45;6.33;;;2.50;;
48845;SDS011;34665;51.886;5.436;2022-10-15T14:46:13;3.90;;;2.22;;
48845;SDS011;34665;51.886;5.436;2022-10-15T14:48:41;2.93;;;2.07;;
48845;SDS011;34665;51.886;5.436;2022-10-15T14:51:15;5.77;;;1.83;;
48845;SDS011;34665;51.886;5.436;2022-10-15T14:53:47;4.90;;;2.20;;
48845;SDS011;34665;51.886;5.436;2022-10-15T14:56:16;3.80;;;1.87;;
48845;SDS011;34665;51.886;5.436;2022-10-15T14:58:45;4.27;;;2.07;;
48845;SDS011;34665;51.886;5.436;2022-10-15T15:01:21;4.90;;;2.10;;
48845;SDS011;34665;51.886;5.436;2022-10-15T15:03:48;2.10;;;1.60;;
48845;SDS011;34665;51.886;5.436;2022-10-15T15:06:18;6.40;;;2.70;;
48845;SDS011;34665;51.886;5.436;2022-10-15T15:08:44;7.05;;;2.40;;
48845;SDS011;34665;51.886;5.436;2022-10-15T15:11:11;6.60;;;2.40;;
48845;SDS011;34665;51.886;5.436;2022-10-15T15:13:55;5.37;;;2.10;;
48845;SDS011;34665;51.886;5.436;2022-10-15T15:16:21;4.25;;;1.75;;
48845;SDS011;34665;51.886;5.436;2022-10-15T15:18:46;4.63;;;1.35;;
48845;SDS011;34665;51.886;5.436;2022-10-15T15:21:13;10.57;;;4.30;;
48845;SDS011;34665;51.886;5.436;2022-10-15T15:23:42;14.47;;;4.60;;
48845;SDS011;34665;51.886;5.436;2022-10-15T15:26:08;11.52;;;3.00;;
48845;SDS011;34665;51.886;5.436;2022-10-15T15:28:33;19.80;;;5.57;;
48845;SDS011;34665;51.886;5.436;2022-10-15T15:31:00;21.38;;;7.82;;
48845;SDS011;34665;51.886;5.436;2022-10-15T15:33:30;25.70;;;8.77;;
48845;SDS011;34665;51.886;5.436;2022-10-15T15:36:00;23.05;;;8.90;;
48845;SDS011;34665;51.886;5.436;2022-10-15T15:38:28;15.80;;;5.17;;
48845;SDS011;34665;51.886;5.436;2022-10-15T15:41:03;8.17;;;2.53;;
48845;SDS011;34665;51.886;5.436;2022-10-15T15:43:39;7.70;;;2.00;;
48845;SDS011;34665;51.886;5.436;2022-10-15T15:46:05;5.55;;;1.38;;
48845;SDS011;34665;51.886;5.436;2022-10-15T15:48:31;4.90;;;1.40;;
48845;SDS011;34665;51.886;5.436;2022-10-15T15:51:06;8.63;;;2.28;;
48845;SDS011;34665;51.886;5.436;2022-10-15T15:53:48;6.70;;;1.90;;
48845;SDS011;34665;51.886;5.436;2022-10-15T15:56:14;6.00;;;1.65;;
48845;SDS011;34665;51.886;5.436;2022-10-15T15:58:40;5.22;;;1.60;;
48845;SDS011;34665;51.886;5.436;2022-10-15T16:01:05;8.77;;;2.60;;
48845;SDS011;34665;51.886;5.436;2022-10-15T16:03:31;9.20;;;3.60;;
48845;SDS011;34665;51.886;5.436;2022-10-15T16:05:56;12.57;;;4.67;;
48845;SDS011;34665;51.886;5.436;2022-10-15T16:08:22;11.45;;;3.25;;
48845;SDS011;34665;51.886;5.436;2022-10-15T16:10:47;7.60;;;2.38;;
48845;SDS011;34665;51.886;5.436;2022-10-15T16:13:13;7.27;;;2.47;;
48845;SDS011;34665;51.886;5.436;2022-10-15T16:15:38;7.13;;;1.80;;
48845;SDS011;34665;51.886;5.436;2022-10-15T16:18:04;3.65;;;1.55;;
48845;SDS011;34665;51.886;5.436;2022-10-15T16:20:30;4.47;;;1.40;;
48845;SDS011;34665;51.886;5.436;2022-10-15T16:22:56;8.50;;;2.22;;
48845;SDS011;34665;51.886;5.436;2022-10-15T16:25:22;7.40;;;1.90;;
48845;SDS011;34665;51.886;5.436;2022-10-15T16:27:47;9.77;;;2.83;;
48845;SDS011;34665;51.886;5.436;2022-10-15T16:30:13;6.33;;;3.13;;
48845;SDS011;34665;51.886;5.436;2022-10-15T16:32:40;12.23;;;4.43;;
48845;SDS011;34665;51.886;5.436;2022-10-15T16:35:05;10.80;;;4.25;;
48845;SDS011;34665;51.886;5.436;2022-10-15T16:37:31;8.15;;;4.20;;
48845;SDS011;34665;51.886;5.436;2022-10-15T16:39:57;10.35;;;3.70;;
48845;SDS011;34665;51.886;5.436;2022-10-15T16:42:23;6.90;;;2.92;;
48845;SDS011;34665;51.886;5.436;2022-10-15T16:44:48;8.70;;;3.05;;
48845;SDS011;34665;51.886;5.436;2022-10-15T16:47:15;9.07;;;2.70;;
48845;SDS011;34665;51.886;5.436;2022-10-15T16:49:40;10.27;;;3.30;;
48845;SDS011;34665;51.886;5.436;2022-10-15T16:52:07;13.65;;;3.35;;
48845;SDS011;34665;51.886;5.436;2022-10-15T16:54:32;9.20;;;3.72;;
48845;SDS011;34665;51.886;5.436;2022-10-15T16:56:58;11.77;;;3.60;;
48845;SDS011;34665;51.886;5.436;2022-10-15T16:59:23;6.30;;;2.77;;